sensor_id;sensor_type;location;lat;lon;timestamp;P1;durP1;ratioP1;P2;durP2;ratioP2
58252;SDS011;44050;48.884;8.762;2022-11-20T00:01:56;4.30;;;3.90;;
58252;SDS011;44050;48.884;8.762;2022-11-20T00:04:26;3.03;;;2.53;;
58252;SDS011;44050;48.884;8.762;2022-11-20T00:06:57;3.58;;;2.55;;
58252;SDS011;44050;48.884;8.762;2022-11-20T00:09:28;2.55;;;2.35;;
58252;SDS011;44050;48.884;8.762;2022-11-20T00:11:58;2.75;;;2.55;;
58252;SDS011;44050;48.884;8.762;2022-11-20T00:14:29;2.97;;;2.37;;
58252;SDS011;44050;48.884;8.762;2022-11-20T00:17:00;3.10;;;2.45;;
58252;SDS011;44050;48.884;8.762;2022-11-20T00:19:30;3.08;;;2.78;;
58252;SDS011;44050;48.884;8.762;2022-11-20T00:22:01;2.38;;;2.28;;
58252;SDS011;44050;48.884;8.762;2022-11-20T00:24:32;2.53;;;1.83;;
58252;SDS011;44050;48.884;8.762;2022-11-20T00:27:03;1.65;;;1.55;;
58252;SDS011;44050;48.884;8.762;2022-11-20T00:29:34;2.97;;;1.70;;
58252;SDS011;44050;48.884;8.762;2022-11-20T00:32:04;1.87;;;1.60;;
58252;SDS011;44050;48.884;8.762;2022-11-20T00:34:35;2.70;;;1.60;;
58252;SDS011;44050;48.884;8.762;2022-11-20T00:37:06;1.25;;;0.88;;
58252;SDS011;44050;48.884;8.762;2022-11-20T00:39:36;2.28;;;1.88;;
58252;SDS011;44050;48.884;8.762;2022-11-20T00:42:07;1.13;;;0.90;;
58252;SDS011;44050;48.884;8.762;2022-11-20T00:44:38;4.30;;;1.55;;
58252;SDS011;44050;48.884;8.762;2022-11-20T00:47:09;1.40;;;1.20;;
58252;SDS011;44050;48.884;8.762;2022-11-20T00:49:39;2.07;;;1.87;;
58252;SDS011;44050;48.884;8.762;2022-11-20T00:52:10;4.20;;;1.60;;
58252;SDS011;44050;48.884;8.762;2022-11-20T00:54:41;1.50;;;0.77;;
58252;SDS011;44050;48.884;8.762;2022-11-20T00:57:12;1.25;;;1.25;;
58252;SDS011;44050;48.884;8.762;2022-11-20T00:59:42;1.63;;;1.53;;
58252;SDS011;44050;48.884;8.762;2022-11-20T01:02:13;1.50;;;1.40;;
58252;SDS011;44050;48.884;8.762;2022-11-20T01:04:45;1.85;;;1.58;;
58252;SDS011;44050;48.884;8.762;2022-11-20T01:07:16;1.52;;;1.42;;
58252;SDS011;44050;48.884;8.762;2022-11-20T01:09:47;2.60;;;1.88;;
58252;SDS011;44050;48.884;8.762;2022-11-20T01:12:17;1.40;;;1.17;;
58252;SDS011;44050;48.884;8.762;2022-11-20T01:14:48;5.10;;;2.00;;
58252;SDS011;44050;48.884;8.762;2022-11-20T01:17:19;0.93;;;0.90;;
58252;SDS011;44050;48.884;8.762;2022-11-20T01:19:49;1.95;;;1.77;;
58252;SDS011;44050;48.884;8.762;2022-11-20T01:22:21;1.20;;;1.10;;
58252;SDS011;44050;48.884;8.762;2022-11-20T01:24:52;2.53;;;1.38;;
58252;SDS011;44050;48.884;8.762;2022-11-20T01:27:22;1.95;;;1.55;;
58252;SDS011;44050;48.884;8.762;2022-11-20T01:29:53;1.50;;;1.40;;
58252;SDS011;44050;48.884;8.762;2022-11-20T01:32:24;1.27;;;1.17;;
58252;SDS011;44050;48.884;8.762;2022-11-20T01:34:54;0.70;;;0.70;;
58252;SDS011;44050;48.884;8.762;2022-11-20T01:37:25;1.50;;;1.08;;
58252;SDS011;44050;48.884;8.762;2022-11-20T01:39:56;3.00;;;0.82;;
58252;SDS011;44050;48.884;8.762;2022-11-20T01:42:27;1.20;;;1.10;;
58252;SDS011;44050;48.884;8.762;2022-11-20T01:48:05;1.08;;;1.00;;
58252;SDS011;44050;48.884;8.762;2022-11-20T01:50:36;1.55;;;1.45;;
58252;SDS011;44050;48.884;8.762;2022-11-20T01:53:08;3.38;;;1.77;;
58252;SDS011;44050;48.884;8.762;2022-11-20T01:55:48;2.42;;;1.83;;
58252;SDS011;44050;48.884;8.762;2022-11-20T01:58:21;1.35;;;1.25;;
58252;SDS011;44050;48.884;8.762;2022-11-20T02:00:53;1.38;;;1.27;;
58252;SDS011;44050;48.884;8.762;2022-11-20T02:03:23;2.50;;;1.60;;
58252;SDS011;44050;48.884;8.762;2022-11-20T02:08:25;1.60;;;1.50;;
58252;SDS011;44050;48.884;8.762;2022-11-20T02:10:55;1.23;;;1.00;;
58252;SDS011;44050;48.884;8.762;2022-11-20T02:13:26;1.55;;;1.45;;
58252;SDS011;44050;48.884;8.762;2022-11-20T02:16:17;2.90;;;1.83;;
58252;SDS011;44050;48.884;8.762;2022-11-20T02:18:49;3.22;;;2.03;;
58252;SDS011;44050;48.884;8.762;2022-11-20T02:26:41;1.83;;;1.73;;
58252;SDS011;44050;48.884;8.762;2022-11-20T02:29:15;2.15;;;1.83;;
58252;SDS011;44050;48.884;8.762;2022-11-20T02:31:46;1.80;;;1.65;;
58252;SDS011;44050;48.884;8.762;2022-11-20T02:34:17;2.22;;;2.05;;
58252;SDS011;44050;48.884;8.762;2022-11-20T02:36:48;3.58;;;1.52;;
58252;SDS011;44050;48.884;8.762;2022-11-20T02:41:52;1.60;;;1.37;;
58252;SDS011;44050;48.884;8.762;2022-11-20T02:44:23;1.30;;;1.20;;
58252;SDS011;44050;48.884;8.762;2022-11-20T02:46:56;1.70;;;1.60;;
58252;SDS011;44050;48.884;8.762;2022-11-20T02:49:27;3.88;;;2.58;;
58252;SDS011;44050;48.884;8.762;2022-11-20T02:51:57;2.80;;;1.60;;
58252;SDS011;44050;48.884;8.762;2022-11-20T02:54:28;0.85;;;0.82;;
58252;SDS011;44050;48.884;8.762;2022-11-20T02:56:59;2.10;;;1.90;;
58252;SDS011;44050;48.884;8.762;2022-11-20T02:59:29;1.90;;;1.60;;
58252;SDS011;44050;48.884;8.762;2022-11-20T03:02:00;1.60;;;1.50;;
58252;SDS011;44050;48.884;8.762;2022-11-20T03:04:31;1.40;;;1.30;;
58252;SDS011;44050;48.884;8.762;2022-11-20T03:07:04;1.80;;;1.05;;
58252;SDS011;44050;48.884;8.762;2022-11-20T03:09:35;1.23;;;1.13;;
58252;SDS011;44050;48.884;8.762;2022-11-20T03:12:06;1.75;;;1.63;;
58252;SDS011;44050;48.884;8.762;2022-11-20T03:14:36;0.80;;;0.80;;
58252;SDS011;44050;48.884;8.762;2022-11-20T03:17:07;1.30;;;1.00;;
58252;SDS011;44050;48.884;8.762;2022-11-20T03:19:38;1.47;;;1.47;;
58252;SDS011;44050;48.884;8.762;2022-11-20T03:22:08;1.30;;;1.30;;
58252;SDS011;44050;48.884;8.762;2022-11-20T03:24:39;2.20;;;1.02;;
58252;SDS011;44050;48.884;8.762;2022-11-20T03:27:10;2.63;;;2.00;;
58252;SDS011;44050;48.884;8.762;2022-11-20T03:29:41;1.27;;;1.17;;
58252;SDS011;44050;48.884;8.762;2022-11-20T03:32:11;2.53;;;1.40;;
58252;SDS011;44050;48.884;8.762;2022-11-20T03:34:42;0.60;;;0.60;;
58252;SDS011;44050;48.884;8.762;2022-11-20T03:37:13;0.90;;;0.90;;
58252;SDS011;44050;48.884;8.762;2022-11-20T03:39:44;0.80;;;0.80;;
58252;SDS011;44050;48.884;8.762;2022-11-20T03:42:14;0.77;;;0.70;;
58252;SDS011;44050;48.884;8.762;2022-11-20T03:45:04;0.70;;;0.70;;
58252;SDS011;44050;48.884;8.762;2022-11-20T03:47:35;3.90;;;1.75;;
58252;SDS011;44050;48.884;8.762;2022-11-20T03:50:06;1.17;;;1.00;;
58252;SDS011;44050;48.884;8.762;2022-11-20T03:52:37;1.40;;;1.15;;
58252;SDS011;44050;48.884;8.762;2022-11-20T03:55:08;3.00;;;1.77;;
58252;SDS011;44050;48.884;8.762;2022-11-20T03:57:39;1.25;;;1.15;;
58252;SDS011;44050;48.884;8.762;2022-11-20T04:00:09;3.40;;;1.15;;
58252;SDS011;44050;48.884;8.762;2022-11-20T04:02:40;1.58;;;1.45;;
58252;SDS011;44050;48.884;8.762;2022-11-20T04:05:11;1.55;;;1.25;;
58252;SDS011;44050;48.884;8.762;2022-11-20T04:07:42;1.48;;;1.10;;
58252;SDS011;44050;48.884;8.762;2022-11-20T04:10:13;1.02;;;0.93;;
58252;SDS011;44050;48.884;8.762;2022-11-20T04:12:43;1.10;;;0.90;;
58252;SDS011;44050;48.884;8.762;2022-11-20T04:15:14;1.25;;;1.02;;
58252;SDS011;44050;48.884;8.762;2022-11-20T04:17:45;1.63;;;1.35;;
58252;SDS011;44050;48.884;8.762;2022-11-20T04:20:15;0.98;;;0.93;;
58252;SDS011;44050;48.884;8.762;2022-11-20T04:22:46;1.10;;;1.00;;
58252;SDS011;44050;48.884;8.762;2022-11-20T04:25:17;1.65;;;0.93;;
58252;SDS011;44050;48.884;8.762;2022-11-20T04:27:48;0.90;;;0.90;;
58252;SDS011;44050;48.884;8.762;2022-11-20T04:30:18;1.38;;;1.00;;
58252;SDS011;44050;48.884;8.762;2022-11-20T04:32:49;0.83;;;0.83;;
58252;SDS011;44050;48.884;8.762;2022-11-20T04:35:20;0.83;;;0.83;;
58252;SDS011;44050;48.884;8.762;2022-11-20T04:37:51;1.47;;;0.93;;
58252;SDS011;44050;48.884;8.762;2022-11-20T04:42:52;0.73;;;0.63;;
58252;SDS011;44050;48.884;8.762;2022-11-20T04:45:24;1.23;;;1.17;;
58252;SDS011;44050;48.884;8.762;2022-11-20T04:47:54;0.80;;;0.80;;
58252;SDS011;44050;48.884;8.762;2022-11-20T04:50:25;2.08;;;1.20;;
58252;SDS011;44050;48.884;8.762;2022-11-20T04:52:56;0.85;;;0.75;;
58252;SDS011;44050;48.884;8.762;2022-11-20T04:55:27;0.50;;;0.50;;
58252;SDS011;44050;48.884;8.762;2022-11-20T04:57:57;0.77;;;0.77;;
58252;SDS011;44050;48.884;8.762;2022-11-20T05:02:59;0.83;;;0.83;;
58252;SDS011;44050;48.884;8.762;2022-11-20T05:05:30;0.40;;;0.40;;
58252;SDS011;44050;48.884;8.762;2022-11-20T05:08:01;1.00;;;0.60;;
58252;SDS011;44050;48.884;8.762;2022-11-20T05:10:31;1.05;;;1.05;;
58252;SDS011;44050;48.884;8.762;2022-11-20T05:13:02;1.10;;;1.10;;
58252;SDS011;44050;48.884;8.762;2022-11-20T05:15:33;0.70;;;0.70;;
58252;SDS011;44050;48.884;8.762;2022-11-20T05:18:03;0.75;;;0.73;;
58252;SDS011;44050;48.884;8.762;2022-11-20T05:20:34;1.33;;;0.90;;
58252;SDS011;44050;48.884;8.762;2022-11-20T05:23:06;0.88;;;0.88;;
58252;SDS011;44050;48.884;8.762;2022-11-20T05:25:37;1.00;;;0.82;;
58252;SDS011;44050;48.884;8.762;2022-11-20T05:28:08;0.85;;;0.80;;
58252;SDS011;44050;48.884;8.762;2022-11-20T05:30:38;2.28;;;1.15;;
58252;SDS011;44050;48.884;8.762;2022-11-20T05:33:09;0.77;;;0.52;;
58252;SDS011;44050;48.884;8.762;2022-11-20T05:35:40;0.80;;;0.57;;
58252;SDS011;44050;48.884;8.762;2022-11-20T05:38:11;2.65;;;0.77;;
58252;SDS011;44050;48.884;8.762;2022-11-20T05:40:42;0.40;;;0.38;;
58252;SDS011;44050;48.884;8.762;2022-11-20T05:43:12;0.50;;;0.43;;
58252;SDS011;44050;48.884;8.762;2022-11-20T05:45:51;1.10;;;0.73;;
58252;SDS011;44050;48.884;8.762;2022-11-20T05:48:22;2.80;;;0.90;;
58252;SDS011;44050;48.884;8.762;2022-11-20T05:50:52;0.65;;;0.65;;
58252;SDS011;44050;48.884;8.762;2022-11-20T05:53:23;0.65;;;0.63;;
58252;SDS011;44050;48.884;8.762;2022-11-20T05:55:58;0.30;;;0.30;;
58252;SDS011;44050;48.884;8.762;2022-11-20T05:58:30;0.70;;;0.40;;
58252;SDS011;44050;48.884;8.762;2022-11-20T06:03:34;0.98;;;0.68;;
58252;SDS011;44050;48.884;8.762;2022-11-20T06:06:05;0.40;;;0.40;;
58252;SDS011;44050;48.884;8.762;2022-11-20T06:08:36;1.05;;;0.95;;
58252;SDS011;44050;48.884;8.762;2022-11-20T06:11:08;1.15;;;0.68;;
58252;SDS011;44050;48.884;8.762;2022-11-20T06:13:39;0.50;;;0.43;;
58252;SDS011;44050;48.884;8.762;2022-11-20T06:16:10;1.02;;;0.70;;
58252;SDS011;44050;48.884;8.762;2022-11-20T06:18:41;0.57;;;0.50;;
58252;SDS011;44050;48.884;8.762;2022-11-20T06:21:16;0.68;;;0.40;;
58252;SDS011;44050;48.884;8.762;2022-11-20T06:23:48;0.70;;;0.40;;
58252;SDS011;44050;48.884;8.762;2022-11-20T06:26:20;0.50;;;0.50;;
58252;SDS011;44050;48.884;8.762;2022-11-20T06:28:51;0.55;;;0.55;;
58252;SDS011;44050;48.884;8.762;2022-11-20T06:33:53;0.67;;;0.63;;
58252;SDS011;44050;48.884;8.762;2022-11-20T06:36:24;0.52;;;0.20;;
58252;SDS011;44050;48.884;8.762;2022-11-20T06:38:54;0.20;;;0.20;;
58252;SDS011;44050;48.884;8.762;2022-11-20T06:41:25;2.25;;;0.75;;
58252;SDS011;44050;48.884;8.762;2022-11-20T06:43:56;0.52;;;0.40;;
58252;SDS011;44050;48.884;8.762;2022-11-20T06:46:27;0.83;;;0.30;;
58252;SDS011;44050;48.884;8.762;2022-11-20T06:48:57;1.55;;;1.05;;
58252;SDS011;44050;48.884;8.762;2022-11-20T06:51:28;0.50;;;0.50;;
58252;SDS011;44050;48.884;8.762;2022-11-20T06:53:59;0.47;;;0.47;;
58252;SDS011;44050;48.884;8.762;2022-11-20T06:56:31;1.88;;;0.60;;
58252;SDS011;44050;48.884;8.762;2022-11-20T06:59:05;0.25;;;0.25;;
58252;SDS011;44050;48.884;8.762;2022-11-20T07:01:36;0.63;;;0.63;;
58252;SDS011;44050;48.884;8.762;2022-11-20T07:04:07;0.30;;;0.30;;
58252;SDS011;44050;48.884;8.762;2022-11-20T07:06:38;0.38;;;0.38;;
58252;SDS011;44050;48.884;8.762;2022-11-20T07:09:09;0.30;;;0.30;;
58252;SDS011;44050;48.884;8.762;2022-11-20T07:11:39;0.20;;;0.20;;
58252;SDS011;44050;48.884;8.762;2022-11-20T07:14:10;0.60;;;0.60;;
58252;SDS011;44050;48.884;8.762;2022-11-20T07:16:41;0.20;;;0.20;;
58252;SDS011;44050;48.884;8.762;2022-11-20T07:19:11;0.40;;;0.40;;
58252;SDS011;44050;48.884;8.762;2022-11-20T07:21:42;0.22;;;0.22;;
58252;SDS011;44050;48.884;8.762;2022-11-20T07:24:13;0.20;;;0.20;;
58252;SDS011;44050;48.884;8.762;2022-11-20T07:26:45;0.22;;;0.22;;
58252;SDS011;44050;48.884;8.762;2022-11-20T07:29:16;0.40;;;0.40;;
58252;SDS011;44050;48.884;8.762;2022-11-20T07:31:47;0.55;;;0.50;;
58252;SDS011;44050;48.884;8.762;2022-11-20T07:34:18;0.25;;;0.25;;
58252;SDS011;44050;48.884;8.762;2022-11-20T07:36:48;0.35;;;0.30;;
58252;SDS011;44050;48.884;8.762;2022-11-20T07:39:19;0.30;;;0.30;;
58252;SDS011;44050;48.884;8.762;2022-11-20T07:41:50;0.65;;;0.60;;
58252;SDS011;44050;48.884;8.762;2022-11-20T07:44:20;0.40;;;0.40;;
58252;SDS011;44050;48.884;8.762;2022-11-20T07:46:51;0.60;;;0.30;;
58252;SDS011;44050;48.884;8.762;2022-11-20T07:49:22;0.43;;;0.43;;
58252;SDS011;44050;48.884;8.762;2022-11-20T07:51:53;0.75;;;0.20;;
58252;SDS011;44050;48.884;8.762;2022-11-20T07:54:24;0.35;;;0.35;;
58252;SDS011;44050;48.884;8.762;2022-11-20T07:56:55;0.85;;;0.52;;
58252;SDS011;44050;48.884;8.762;2022-11-20T07:59:25;0.30;;;0.30;;
58252;SDS011;44050;48.884;8.762;2022-11-20T08:01:56;0.15;;;0.15;;
58252;SDS011;44050;48.884;8.762;2022-11-20T08:04:27;0.20;;;0.20;;
58252;SDS011;44050;48.884;8.762;2022-11-20T08:06:57;0.25;;;0.25;;
58252;SDS011;44050;48.884;8.762;2022-11-20T08:09:28;0.20;;;0.20;;
58252;SDS011;44050;48.884;8.762;2022-11-20T08:11:59;0.30;;;0.30;;
58252;SDS011;44050;48.884;8.762;2022-11-20T08:14:48;0.20;;;0.20;;
58252;SDS011;44050;48.884;8.762;2022-11-20T08:17:19;0.88;;;0.43;;
58252;SDS011;44050;48.884;8.762;2022-11-20T08:19:50;0.43;;;0.38;;
58252;SDS011;44050;48.884;8.762;2022-11-20T08:22:21;0.80;;;0.65;;
58252;SDS011;44050;48.884;8.762;2022-11-20T08:24:51;0.90;;;0.50;;
58252;SDS011;44050;48.884;8.762;2022-11-20T08:27:22;0.30;;;0.30;;
58252;SDS011;44050;48.884;8.762;2022-11-20T08:29:53;0.40;;;0.40;;
58252;SDS011;44050;48.884;8.762;2022-11-20T08:32:24;0.30;;;0.30;;
58252;SDS011;44050;48.884;8.762;2022-11-20T08:34:54;0.33;;;0.33;;
58252;SDS011;44050;48.884;8.762;2022-11-20T08:37:25;0.40;;;0.40;;
58252;SDS011;44050;48.884;8.762;2022-11-20T08:39:56;0.52;;;0.40;;
58252;SDS011;44050;48.884;8.762;2022-11-20T08:42:27;0.50;;;0.50;;
58252;SDS011;44050;48.884;8.762;2022-11-20T08:45:02;2.03;;;0.57;;
58252;SDS011;44050;48.884;8.762;2022-11-20T08:47:35;0.32;;;0.32;;
58252;SDS011;44050;48.884;8.762;2022-11-20T08:50:06;0.20;;;0.20;;
58252;SDS011;44050;48.884;8.762;2022-11-20T08:52:38;0.30;;;0.30;;
58252;SDS011;44050;48.884;8.762;2022-11-20T08:55:09;0.28;;;0.28;;
58252;SDS011;44050;48.884;8.762;2022-11-20T09:00:11;0.33;;;0.33;;
58252;SDS011;44050;48.884;8.762;2022-11-20T09:02:43;0.20;;;0.20;;
58252;SDS011;44050;48.884;8.762;2022-11-20T09:05:13;0.57;;;0.57;;
58252;SDS011;44050;48.884;8.762;2022-11-20T09:07:44;0.55;;;0.55;;
58252;SDS011;44050;48.884;8.762;2022-11-20T09:10:15;0.47;;;0.47;;
58252;SDS011;44050;48.884;8.762;2022-11-20T09:12:48;0.50;;;0.50;;
58252;SDS011;44050;48.884;8.762;2022-11-20T09:15:19;0.40;;;0.40;;
58252;SDS011;44050;48.884;8.762;2022-11-20T09:17:53;0.80;;;0.80;;
58252;SDS011;44050;48.884;8.762;2022-11-20T09:20:38;0.52;;;0.50;;
58252;SDS011;44050;48.884;8.762;2022-11-20T09:23:09;3.10;;;0.77;;
58252;SDS011;44050;48.884;8.762;2022-11-20T09:25:40;1.40;;;1.30;;
58252;SDS011;44050;48.884;8.762;2022-11-20T09:28:11;2.33;;;1.27;;
58252;SDS011;44050;48.884;8.762;2022-11-20T09:30:42;0.90;;;0.90;;
58252;SDS011;44050;48.884;8.762;2022-11-20T09:33:12;1.98;;;1.35;;
58252;SDS011;44050;48.884;8.762;2022-11-20T09:35:44;4.22;;;1.08;;
58252;SDS011;44050;48.884;8.762;2022-11-20T09:38:17;2.13;;;1.92;;
58252;SDS011;44050;48.884;8.762;2022-11-20T09:40:54;1.48;;;1.38;;
58252;SDS011;44050;48.884;8.762;2022-11-20T09:43:32;2.63;;;1.65;;
58252;SDS011;44050;48.884;8.762;2022-11-20T09:48:50;2.15;;;1.38;;
58252;SDS011;44050;48.884;8.762;2022-11-20T09:51:31;2.05;;;1.65;;
58252;SDS011;44050;48.884;8.762;2022-11-20T09:56:37;3.63;;;1.48;;
58252;SDS011;44050;48.884;8.762;2022-11-20T09:59:57;2.60;;;1.63;;
58252;SDS011;44050;48.884;8.762;2022-11-20T10:02:01;1.67;;;1.58;;
58252;SDS011;44050;48.884;8.762;2022-11-20T10:04:33;0.82;;;0.82;;
58252;SDS011;44050;48.884;8.762;2022-11-20T10:07:07;1.58;;;1.00;;
58252;SDS011;44050;48.884;8.762;2022-11-20T10:09:53;0.73;;;0.73;;
58252;SDS011;44050;48.884;8.762;2022-11-20T10:12:27;0.60;;;0.40;;
58252;SDS011;44050;48.884;8.762;2022-11-20T10:20:40;1.90;;;1.50;;
58252;SDS011;44050;48.884;8.762;2022-11-20T10:26:03;1.80;;;1.00;;
58252;SDS011;44050;48.884;8.762;2022-11-20T10:28:47;2.67;;;1.80;;
58252;SDS011;44050;48.884;8.762;2022-11-20T10:31:40;0.82;;;0.82;;
58252;SDS011;44050;48.884;8.762;2022-11-20T10:36:47;1.42;;;1.33;;
58252;SDS011;44050;48.884;8.762;2022-11-20T10:39:25;2.05;;;1.83;;
58252;SDS011;44050;48.884;8.762;2022-11-20T10:41:58;1.23;;;1.17;;
58252;SDS011;44050;48.884;8.762;2022-11-20T10:44:30;2.10;;;1.33;;
58252;SDS011;44050;48.884;8.762;2022-11-20T10:47:45;3.45;;;1.23;;
58252;SDS011;44050;48.884;8.762;2022-11-20T10:50:18;4.07;;;1.65;;
58252;SDS011;44050;48.884;8.762;2022-11-20T10:53:30;3.05;;;1.95;;
58252;SDS011;44050;48.884;8.762;2022-11-20T10:55:53;0.80;;;0.80;;
58252;SDS011;44050;48.884;8.762;2022-11-20T10:58:35;1.33;;;1.23;;
58252;SDS011;44050;48.884;8.762;2022-11-20T11:01:16;4.07;;;1.00;;
58252;SDS011;44050;48.884;8.762;2022-11-20T11:03:48;1.25;;;1.15;;
58252;SDS011;44050;48.884;8.762;2022-11-20T11:08:53;1.95;;;1.08;;
58252;SDS011;44050;48.884;8.762;2022-11-20T11:11:30;6.75;;;1.73;;
58252;SDS011;44050;48.884;8.762;2022-11-20T11:14:13;1.55;;;1.45;;
58252;SDS011;44050;48.884;8.762;2022-11-20T11:16:51;1.65;;;1.40;;
58252;SDS011;44050;48.884;8.762;2022-11-20T11:19:22;1.65;;;1.42;;
58252;SDS011;44050;48.884;8.762;2022-11-20T11:21:54;2.92;;;1.20;;
58252;SDS011;44050;48.884;8.762;2022-11-20T11:27:16;2.00;;;1.15;;
58252;SDS011;44050;48.884;8.762;2022-11-20T11:29:48;2.72;;;0.93;;
58252;SDS011;44050;48.884;8.762;2022-11-20T11:32:19;1.02;;;0.98;;
58252;SDS011;44050;48.884;8.762;2022-11-20T11:35:07;0.95;;;0.90;;
58252;SDS011;44050;48.884;8.762;2022-11-20T11:37:48;1.40;;;0.98;;
58252;SDS011;44050;48.884;8.762;2022-11-20T11:40:20;2.10;;;1.08;;
58252;SDS011;44050;48.884;8.762;2022-11-20T11:42:56;1.08;;;0.88;;
58252;SDS011;44050;48.884;8.762;2022-11-20T11:45:28;1.75;;;1.10;;
58252;SDS011;44050;48.884;8.762;2022-11-20T11:50:31;0.55;;;0.55;;
58252;SDS011;44050;48.884;8.762;2022-11-20T12:06:32;1.48;;;0.95;;
58252;SDS011;44050;48.884;8.762;2022-11-20T12:09:05;0.70;;;0.55;;
58252;SDS011;44050;48.884;8.762;2022-11-20T12:17:04;0.77;;;0.70;;
58252;SDS011;44050;48.884;8.762;2022-11-20T12:19:35;0.82;;;0.50;;
58252;SDS011;44050;48.884;8.762;2022-11-20T12:22:36;3.17;;;0.85;;
58252;SDS011;44050;48.884;8.762;2022-11-20T12:25:24;0.75;;;0.75;;
58252;SDS011;44050;48.884;8.762;2022-11-20T12:28:00;1.30;;;0.60;;
58252;SDS011;44050;48.884;8.762;2022-11-20T12:30:41;0.57;;;0.57;;
58252;SDS011;44050;48.884;8.762;2022-11-20T12:44:36;0.75;;;0.75;;
58252;SDS011;44050;48.884;8.762;2022-11-20T12:52:56;0.50;;;0.50;;
58252;SDS011;44050;48.884;8.762;2022-11-20T13:00:56;0.52;;;0.45;;
58252;SDS011;44050;48.884;8.762;2022-11-20T13:03:34;1.88;;;0.70;;
58252;SDS011;44050;48.884;8.762;2022-11-20T13:08:43;5.80;;;0.65;;
58252;SDS011;44050;48.884;8.762;2022-11-20T13:17:07;1.85;;;0.75;;
58252;SDS011;44050;48.884;8.762;2022-11-20T13:19:40;0.90;;;0.90;;
58252;SDS011;44050;48.884;8.762;2022-11-20T13:22:11;0.95;;;0.77;;
58252;SDS011;44050;48.884;8.762;2022-11-20T13:24:49;0.65;;;0.63;;
58252;SDS011;44050;48.884;8.762;2022-11-20T13:27:23;0.70;;;0.70;;
58252;SDS011;44050;48.884;8.762;2022-11-20T13:30:14;1.17;;;0.65;;
58252;SDS011;44050;48.884;8.762;2022-11-20T13:32:55;0.95;;;0.52;;
58252;SDS011;44050;48.884;8.762;2022-11-20T13:35:54;2.40;;;0.93;;
58252;SDS011;44050;48.884;8.762;2022-11-20T13:38:17;0.43;;;0.35;;
58252;SDS011;44050;48.884;8.762;2022-11-20T13:40:53;0.70;;;0.60;;
58252;SDS011;44050;48.884;8.762;2022-11-20T13:46:04;2.05;;;1.00;;
58252;SDS011;44050;48.884;8.762;2022-11-20T13:48:43;0.82;;;0.75;;
58252;SDS011;44050;48.884;8.762;2022-11-20T14:01:44;0.85;;;0.63;;
58252;SDS011;44050;48.884;8.762;2022-11-20T14:04:18;0.45;;;0.30;;
58252;SDS011;44050;48.884;8.762;2022-11-20T14:06:50;0.15;;;0.15;;
58252;SDS011;44050;48.884;8.762;2022-11-20T14:09:25;0.17;;;0.17;;
58252;SDS011;44050;48.884;8.762;2022-11-20T14:11:56;0.38;;;0.38;;
58252;SDS011;44050;48.884;8.762;2022-11-20T14:14:28;1.77;;;0.80;;
58252;SDS011;44050;48.884;8.762;2022-11-20T14:17:06;0.50;;;0.30;;
58252;SDS011;44050;48.884;8.762;2022-11-20T14:19:37;0.50;;;0.50;;
58252;SDS011;44050;48.884;8.762;2022-11-20T14:22:17;0.47;;;0.47;;
58252;SDS011;44050;48.884;8.762;2022-11-20T14:25:00;2.80;;;0.63;;
58252;SDS011;44050;48.884;8.762;2022-11-20T14:27:33;0.30;;;0.30;;
58252;SDS011;44050;48.884;8.762;2022-11-20T14:30:04;0.63;;;0.30;;
58252;SDS011;44050;48.884;8.762;2022-11-20T14:32:43;0.60;;;0.45;;
58252;SDS011;44050;48.884;8.762;2022-11-20T14:37:46;1.30;;;0.65;;
58252;SDS011;44050;48.884;8.762;2022-11-20T14:42:58;1.35;;;0.90;;
58252;SDS011;44050;48.884;8.762;2022-11-20T14:45:29;1.40;;;1.15;;
58252;SDS011;44050;48.884;8.762;2022-11-20T14:47:59;0.30;;;0.30;;
58252;SDS011;44050;48.884;8.762;2022-11-20T14:50:31;0.68;;;0.60;;
58252;SDS011;44050;48.884;8.762;2022-11-20T14:53:01;0.60;;;0.52;;
58252;SDS011;44050;48.884;8.762;2022-11-20T14:58:04;0.32;;;0.32;;
58252;SDS011;44050;48.884;8.762;2022-11-20T15:00:35;3.10;;;0.57;;
58252;SDS011;44050;48.884;8.762;2022-11-20T15:03:14;0.52;;;0.52;;
58252;SDS011;44050;48.884;8.762;2022-11-20T15:05:48;0.20;;;0.17;;
58252;SDS011;44050;48.884;8.762;2022-11-20T15:08:20;0.30;;;0.30;;
58252;SDS011;44050;48.884;8.762;2022-11-20T15:10:58;3.88;;;0.88;;
58252;SDS011;44050;48.884;8.762;2022-11-20T15:13:37;1.25;;;0.57;;
58252;SDS011;44050;48.884;8.762;2022-11-20T15:16:13;0.55;;;0.55;;
58252;SDS011;44050;48.884;8.762;2022-11-20T15:18:45;0.40;;;0.30;;
58252;SDS011;44050;48.884;8.762;2022-11-20T15:23:48;2.00;;;0.70;;
58252;SDS011;44050;48.884;8.762;2022-11-20T15:26:22;1.13;;;1.02;;
58252;SDS011;44050;48.884;8.762;2022-11-20T15:28:54;2.20;;;1.23;;
58252;SDS011;44050;48.884;8.762;2022-11-20T15:31:24;1.33;;;1.23;;
58252;SDS011;44050;48.884;8.762;2022-11-20T15:33:55;3.08;;;1.75;;
58252;SDS011;44050;48.884;8.762;2022-11-20T15:36:29;1.38;;;1.20;;
58252;SDS011;44050;48.884;8.762;2022-11-20T15:38:59;3.00;;;1.77;;
58252;SDS011;44050;48.884;8.762;2022-11-20T15:41:31;4.68;;;2.05;;
58252;SDS011;44050;48.884;8.762;2022-11-20T15:44:02;1.70;;;1.60;;
58252;SDS011;44050;48.884;8.762;2022-11-20T15:46:36;1.45;;;1.25;;
58252;SDS011;44050;48.884;8.762;2022-11-20T15:49:14;2.03;;;1.08;;
58252;SDS011;44050;48.884;8.762;2022-11-20T15:51:49;1.50;;;1.10;;
58252;SDS011;44050;48.884;8.762;2022-11-20T15:54:21;0.85;;;0.68;;
58252;SDS011;44050;48.884;8.762;2022-11-20T15:56:52;0.68;;;0.68;;
58252;SDS011;44050;48.884;8.762;2022-11-20T15:59:24;0.85;;;0.82;;
58252;SDS011;44050;48.884;8.762;2022-11-20T16:01:56;1.33;;;0.95;;
58252;SDS011;44050;48.884;8.762;2022-11-20T16:04:27;0.50;;;0.50;;
58252;SDS011;44050;48.884;8.762;2022-11-20T16:06:57;0.80;;;0.80;;
58252;SDS011;44050;48.884;8.762;2022-11-20T16:09:29;0.73;;;0.73;;
58252;SDS011;44050;48.884;8.762;2022-11-20T16:12:00;0.93;;;0.60;;
58252;SDS011;44050;48.884;8.762;2022-11-20T16:14:32;2.13;;;1.10;;
58252;SDS011;44050;48.884;8.762;2022-11-20T16:17:24;1.50;;;1.02;;
58252;SDS011;44050;48.884;8.762;2022-11-20T16:20:16;1.85;;;1.38;;
58252;SDS011;44050;48.884;8.762;2022-11-20T16:22:53;1.40;;;1.10;;
58252;SDS011;44050;48.884;8.762;2022-11-20T16:25:26;2.03;;;1.02;;
58252;SDS011;44050;48.884;8.762;2022-11-20T16:27:57;1.77;;;1.55;;
58252;SDS011;44050;48.884;8.762;2022-11-20T16:30:32;2.05;;;1.50;;
58252;SDS011;44050;48.884;8.762;2022-11-20T16:33:08;3.70;;;1.75;;
58252;SDS011;44050;48.884;8.762;2022-11-20T16:35:48;1.65;;;1.02;;
58252;SDS011;44050;48.884;8.762;2022-11-20T16:38:19;0.90;;;0.90;;
58252;SDS011;44050;48.884;8.762;2022-11-20T16:40:51;7.00;;;4.60;;
58252;SDS011;44050;48.884;8.762;2022-11-20T16:43:23;5.85;;;4.18;;
58252;SDS011;44050;48.884;8.762;2022-11-20T16:45:55;3.15;;;2.53;;
58252;SDS011;44050;48.884;8.762;2022-11-20T16:48:26;5.07;;;2.58;;
58252;SDS011;44050;48.884;8.762;2022-11-20T16:50:58;3.45;;;1.25;;
58252;SDS011;44050;48.884;8.762;2022-11-20T16:53:29;2.88;;;1.23;;
58252;SDS011;44050;48.884;8.762;2022-11-20T16:58:43;0.50;;;0.50;;
58252;SDS011;44050;48.884;8.762;2022-11-20T17:03:46;0.60;;;0.45;;
58252;SDS011;44050;48.884;8.762;2022-11-20T17:06:19;0.82;;;0.60;;
58252;SDS011;44050;48.884;8.762;2022-11-20T17:08:50;0.47;;;0.47;;
58252;SDS011;44050;48.884;8.762;2022-11-20T17:11:21;0.50;;;0.50;;
58252;SDS011;44050;48.884;8.762;2022-11-20T17:13:56;0.70;;;0.70;;
58252;SDS011;44050;48.884;8.762;2022-11-20T17:16:27;1.23;;;0.85;;
58252;SDS011;44050;48.884;8.762;2022-11-20T17:18:58;1.38;;;0.98;;
58252;SDS011;44050;48.884;8.762;2022-11-20T17:21:31;0.93;;;0.82;;
58252;SDS011;44050;48.884;8.762;2022-11-20T17:24:07;0.82;;;0.82;;
58252;SDS011;44050;48.884;8.762;2022-11-20T17:26:39;0.52;;;0.52;;
58252;SDS011;44050;48.884;8.762;2022-11-20T17:29:15;1.95;;;0.63;;
58252;SDS011;44050;48.884;8.762;2022-11-20T17:31:57;2.53;;;0.63;;